Time;durP1;ratioP1;P1;durP2;ratioP2;P2;SDS_P1;SDS_P2;PMS_P1;PMS_P2;Temp;Humidity;BMP_temperature;BMP_pressure;BME280_temperature;BME280_humidity;BME280_pressure;Samples;Min_cycle;Max_cycle;Signal;HPM_P1;HPM_P2
2022/05/13 00:01:19;;;;;;;32.60;5.55;;;;;;;;;;5022372;28;20467;-68
2022/05/13 00:03:45;;;;;;;33.95;5.60;;;;;;;;;;5034396;28;20048;-68
2022/05/13 00:06:10;;;;;;;34.28;6.00;;;;;;;;;;5011479;28;20032;-68
2022/05/13 00:08:38;;;;;;;37.03;6.00;;;;;;;;;;5020863;28;20039;-69
2022/05/13 00:11:04;;;;;;;36.45;6.13;;;;;;;;;;5025175;28;20032;-69
2022/05/13 00:13:29;;;;;;;39.72;5.75;;;;;;;;;;5020205;28;20134;-67
2022/05/13 00:15:56;;;;;;;41.97;6.63;;;;;;;;;;5020508;28;20037;-68
2022/05/13 00:18:21;;;;;;;38.45;5.68;;;;;;;;;;4998029;28;20841;-68
2022/05/13 00:20:49;;;;;;;32.47;6.43;;;;;;;;;;5018573;28;20037;-68
2022/05/13 00:23:14;;;;;;;36.55;5.85;;;;;;;;;;5015897;28;20515;-69
2022/05/13 00:25:42;;;;;;;40.55;6.22;;;;;;;;;;5010440;28;20246;-70
2022/05/13 00:28:08;;;;;;;38.83;6.53;;;;;;;;;;5014388;28;20091;-68
2022/05/13 00:30:36;;;;;;;42.85;6.95;;;;;;;;;;5013136;28;20060;-69
2022/05/13 00:33:01;;;;;;;36.90;6.38;;;;;;;;;;5009004;28;20029;-68
2022/05/13 00:35:27;;;;;;;43.03;5.72;;;;;;;;;;5011245;28;20099;-70
2022/05/13 00:37:52;;;;;;;34.45;5.45;;;;;;;;;;5028231;28;20037;-68
2022/05/13 00:40:20;;;;;;;35.17;5.82;;;;;;;;;;5019470;28;20098;-68
2022/05/13 00:42:46;;;;;;;35.47;5.50;;;;;;;;;;5018874;28;20047;-67
2022/05/13 00:45:13;;;;;;;38.05;6.07;;;;;;;;;;5011457;28;20428;-68
2022/05/13 00:47:39;;;;;;;42.50;6.30;;;;;;;;;;5016511;28;20453;-68
2022/05/13 00:50:04;;;;;;;33.58;6.05;;;;;;;;;;5016542;28;20329;-69
2022/05/13 00:52:32;;;;;;;39.75;6.32;;;;;;;;;;5016681;28;20429;-69
2022/05/13 00:54:59;;;;;;;41.63;7.13;;;;;;;;;;5037486;28;20033;-69
2022/05/13 00:57:24;;;;;;;37.83;6.55;;;;;;;;;;5027846;28;20040;-69
2022/05/13 00:59:51;;;;;;;37.35;6.95;;;;;;;;;;5031715;28;20423;-69
2022/05/13 01:02:17;;;;;;;33.92;6.43;;;;;;;;;;5014501;28;20040;-66
2022/05/13 01:04:46;;;;;;;40.63;7.22;;;;;;;;;;5041572;28;20045;-68
2022/05/13 01:07:13;;;;;;;38.08;6.70;;;;;;;;;;5018101;28;20033;-68
2022/05/13 01:09:44;;;;;;;35.15;5.43;;;;;;;;;;5026304;28;20037;-70
2022/05/13 01:12:12;;;;;;;43.67;6.97;;;;;;;;;;5006862;28;20033;-69
2022/05/13 01:14:42;;;;;;;39.90;6.80;;;;;;;;;;5014639;28;20772;-67
2022/05/13 01:20:06;;;;;;;39.20;6.45;;;;;;;;;;5003778;28;20045;-68
2022/05/13 01:22:44;;;;;;;43.55;6.43;;;;;;;;;;5003397;28;20040;-69
2022/05/13 01:25:13;;;;;;;36.58;5.90;;;;;;;;;;4995687;28;20268;-67
2022/05/13 01:27:43;;;;;;;38.17;5.50;;;;;;;;;;4999058;28;20044;-68
2022/05/13 01:30:09;;;;;;;30.40;5.45;;;;;;;;;;5005252;28;20129;-69
2022/05/13 01:32:34;;;;;;;31.38;5.60;;;;;;;;;;5003446;28;20514;-69
2022/05/13 01:35:02;;;;;;;33.78;5.85;;;;;;;;;;5005314;28;20541;-70
2022/05/13 01:37:27;;;;;;;31.95;4.47;;;;;;;;;;5004130;28;20051;-69
2022/05/13 01:39:53;;;;;;;33.30;5.03;;;;;;;;;;5005764;28;20037;-69
2022/05/13 01:42:19;;;;;;;27.27;4.53;;;;;;;;;;5011930;28;20040;-68
2022/05/13 01:44:45;;;;;;;26.60;4.57;;;;;;;;;;4990976;28;20305;-69
2022/05/13 01:47:10;;;;;;;30.20;4.22;;;;;;;;;;5010510;28;20033;-67
2022/05/13 01:49:38;;;;;;;31.45;4.60;;;;;;;;;;5007859;28;20159;-68
2022/05/13 01:52:06;;;;;;;17.02;3.83;;;;;;;;;;5018286;28;20057;-67
2022/05/13 01:54:31;;;;;;;26.70;3.80;;;;;;;;;;5021192;28;20029;-69
2022/05/13 01:56:57;;;;;;;28.77;4.00;;;;;;;;;;5006566;28;20303;-69
2022/05/13 01:59:22;;;;;;;22.48;4.25;;;;;;;;;;5013082;28;20033;-68
2022/05/13 02:01:50;;;;;;;20.67;3.75;;;;;;;;;;5008803;28;20494;-67
2022/05/13 02:04:15;;;;;;;17.30;3.67;;;;;;;;;;5001919;28;20102;-67
2022/05/13 02:06:40;;;;;;;24.23;3.47;;;;;;;;;;5003410;28;20112;-70
2022/05/13 02:09:09;;;;;;;15.68;3.45;;;;;;;;;;5009946;28;20481;-67
2022/05/13 02:11:36;;;;;;;27.17;4.13;;;;;;;;;;5002153;28;20770;-68
2022/05/13 02:14:01;;;;;;;23.40;3.25;;;;;;;;;;5003158;28;20037;-68
2022/05/13 02:16:27;;;;;;;16.08;3.20;;;;;;;;;;5003432;28;20079;-67
2022/05/13 02:18:53;;;;;;;19.63;3.50;;;;;;;;;;4998091;28;20139;-68
2022/05/13 02:21:19;;;;;;;15.10;3.40;;;;;;;;;;5006143;28;20416;-68
2022/05/13 02:23:44;;;;;;;18.45;3.70;;;;;;;;;;4997948;28;20148;-68
2022/05/13 02:26:11;;;;;;;21.02;3.47;;;;;;;;;;5008933;28;20033;-68
2022/05/13 02:28:37;;;;;;;18.00;3.20;;;;;;;;;;5004271;28;20039;-68
2022/05/13 02:31:02;;;;;;;24.70;3.72;;;;;;;;;;5008800;28;21859;-68
2022/05/13 02:33:31;;;;;;;20.85;4.00;;;;;;;;;;5011619;28;20133;-68
2022/05/13 02:35:57;;;;;;;22.90;3.38;;;;;;;;;;5001680;28;22136;-68
2022/05/13 02:38:22;;;;;;;19.95;3.70;;;;;;;;;;5003134;28;20025;-68
2022/05/13 02:43:32;;;;;;;25.95;3.63;;;;;;;;;;5006636;28;20414;-67
2022/05/13 02:45:57;;;;;;;14.48;2.90;;;;;;;;;;5011092;28;20212;-69
2022/05/13 02:48:23;;;;;;;21.08;3.33;;;;;;;;;;5009900;28;20041;-68
2022/05/13 02:50:48;;;;;;;22.65;3.17;;;;;;;;;;5005846;28;20540;-69
2022/05/13 02:53:14;;;;;;;21.38;2.90;;;;;;;;;;5013221;28;20504;-69
2022/05/13 02:55:39;;;;;;;15.38;3.13;;;;;;;;;;5016120;28;21834;-72
2022/05/13 02:58:05;;;;;;;15.15;2.80;;;;;;;;;;5025624;28;20493;-68
2022/05/13 03:00:30;;;;;;;15.77;3.17;;;;;;;;;;5020957;28;20168;-70
2022/05/13 03:02:56;;;;;;;15.27;2.90;;;;;;;;;;5007524;28;20055;-68
2022/05/13 03:05:22;;;;;;;20.40;3.58;;;;;;;;;;5017886;28;20125;-69
2022/05/13 03:07:47;;;;;;;22.77;3.35;;;;;;;;;;5012183;28;20063;-69
2022/05/13 03:10:12;;;;;;;17.33;3.28;;;;;;;;;;5022889;28;20764;-68
2022/05/13 03:12:38;;;;;;;20.02;3.50;;;;;;;;;;5018120;28;20573;-69
2022/05/13 03:15:04;;;;;;;19.15;3.13;;;;;;;;;;5018227;28;20053;-69
2022/05/13 03:17:29;;;;;;;24.55;4.22;;;;;;;;;;5009607;28;20367;-67
2022/05/13 03:19:57;;;;;;;23.50;4.40;;;;;;;;;;5012740;28;20033;-70
2022/05/13 03:22:23;;;;;;;17.17;3.35;;;;;;;;;;5012370;28;20033;-69
2022/05/13 03:24:48;;;;;;;17.42;3.85;;;;;;;;;;5012587;28;20045;-69
2022/05/13 03:27:13;;;;;;;31.27;4.70;;;;;;;;;;5027994;28;22272;-71
2022/05/13 03:29:41;;;;;;;21.95;3.63;;;;;;;;;;5021851;28;20033;-69
2022/05/13 03:32:08;;;;;;;22.30;3.92;;;;;;;;;;5016683;28;20045;-70
2022/05/13 03:34:39;;;;;;;19.77;3.78;;;;;;;;;;5023168;28;20155;-68
2022/05/13 03:37:05;;;;;;;18.83;3.63;;;;;;;;;;5027227;28;20689;-69
2022/05/13 03:39:31;;;;;;;18.15;4.50;;;;;;;;;;5027271;28;20186;-68
2022/05/13 03:41:56;;;;;;;23.30;4.22;;;;;;;;;;5013873;28;20115;-68
2022/05/13 03:44:22;;;;;;;25.55;4.32;;;;;;;;;;5014229;28;20598;-68
2022/05/13 03:46:47;;;;;;;25.67;3.60;;;;;;;;;;4997630;28;20048;-67
2022/05/13 03:49:13;;;;;;;16.13;3.20;;;;;;;;;;5020375;28;20048;-68
2022/05/13 03:51:39;;;;;;;18.48;3.55;;;;;;;;;;5012162;28;20171;-68
2022/05/13 03:54:04;;;;;;;22.65;3.15;;;;;;;;;;5022299;28;20477;-69
2022/05/13 03:56:30;;;;;;;20.88;3.72;;;;;;;;;;5026283;28;20037;-68
2022/05/13 03:58:58;;;;;;;22.83;3.33;;;;;;;;;;5011313;28;20036;-69
2022/05/13 04:01:23;;;;;;;21.10;3.58;;;;;;;;;;5019298;28;20029;-68
2022/05/13 04:03:51;;;;;;;19.48;3.40;;;;;;;;;;5014519;28;20370;-70
2022/05/13 04:09:06;;;;;;;23.92;4.22;;;;;;;;;;5012239;28;20033;-67
2022/05/13 04:11:33;;;;;;;22.05;3.92;;;;;;;;;;5000615;28;20086;-68
2022/05/13 04:16:44;;;;;;;28.50;4.55;;;;;;;;;;5007748;28;20113;-67
2022/05/13 04:19:10;;;;;;;26.45;5.70;;;;;;;;;;4999353;28;20029;-70
2022/05/13 04:21:37;;;;;;;21.17;3.88;;;;;;;;;;5016372;28;20124;-68
2022/05/13 04:24:04;;;;;;;25.70;4.38;;;;;;;;;;5007063;28;20102;-68
2022/05/13 04:26:30;;;;;;;20.35;4.43;;;;;;;;;;5006622;28;20490;-69
2022/05/13 04:28:56;;;;;;;27.27;4.93;;;;;;;;;;5024723;28;20033;-69
2022/05/13 04:31:23;;;;;;;28.73;5.18;;;;;;;;;;5008677;28;20068;-67
2022/05/13 04:33:49;;;;;;;21.30;4.45;;;;;;;;;;5011922;28;20125;-70
2022/05/13 04:36:15;;;;;;;24.45;4.28;;;;;;;;;;5015851;28;20494;-66
2022/05/13 04:38:40;;;;;;;23.13;4.50;;;;;;;;;;5003621;28;20140;-67
2022/05/13 04:43:50;;;;;;;23.85;3.80;;;;;;;;;;5011039;28;20257;-70
2022/05/13 04:46:17;;;;;;;23.90;4.15;;;;;;;;;;5000384;28;20045;-68
2022/05/13 04:48:43;;;;;;;27.25;3.85;;;;;;;;;;4998588;28;20621;-66
2022/05/13 04:51:10;;;;;;;17.63;3.20;;;;;;;;;;4998358;28;20510;-65
2022/05/13 04:53:38;;;;;;;18.27;4.57;;;;;;;;;;4994051;28;20041;-66
2022/05/13 04:56:07;;;;;;;17.88;3.28;;;;;;;;;;4998078;28;20118;-66
2022/05/13 04:58:33;;;;;;;22.67;4.20;;;;;;;;;;5002343;28;20303;-66
2022/05/13 05:01:00;;;;;;;20.15;3.47;;;;;;;;;;4994299;28;20036;-65
2022/05/13 05:03:29;;;;;;;23.13;3.67;;;;;;;;;;4998623;28;20141;-67
2022/05/13 05:05:58;;;;;;;19.70;3.20;;;;;;;;;;4999257;28;20037;-68
2022/05/13 05:08:28;;;;;;;20.02;3.78;;;;;;;;;;4995346;28;20447;-68
2022/05/13 05:10:53;;;;;;;25.60;3.90;;;;;;;;;;4992181;28;20209;-67
2022/05/13 05:13:19;;;;;;;19.27;3.90;;;;;;;;;;4992872;28;20080;-66
2022/05/13 05:15:45;;;;;;;16.63;3.72;;;;;;;;;;4990521;28;20075;-69
2022/05/13 05:18:11;;;;;;;20.52;3.28;;;;;;;;;;4993706;28;20171;-66
2022/05/13 05:20:36;;;;;;;27.80;4.60;;;;;;;;;;4991889;28;20040;-66
2022/05/13 05:23:02;;;;;;;26.10;4.18;;;;;;;;;;4993367;28;20933;-68
2022/05/13 05:25:29;;;;;;;17.50;3.20;;;;;;;;;;4992806;28;20195;-67
2022/05/13 05:27:55;;;;;;;26.15;3.58;;;;;;;;;;4984110;28;20494;-67
2022/05/13 05:30:20;;;;;;;14.07;3.13;;;;;;;;;;4989358;28;20231;-68
2022/05/13 05:32:45;;;;;;;21.15;3.60;;;;;;;;;;5009815;28;20029;-67
2022/05/13 05:35:14;;;;;;;18.98;3.35;;;;;;;;;;4997652;28;20389;-67
2022/05/13 05:37:39;;;;;;;19.92;3.83;;;;;;;;;;4994699;28;20033;-67
2022/05/13 05:40:04;;;;;;;17.52;3.30;;;;;;;;;;4995412;28;20120;-67
2022/05/13 05:42:30;;;;;;;16.42;3.25;;;;;;;;;;4997554;28;20029;-67
2022/05/13 05:44:56;;;;;;;12.07;2.63;;;;;;;;;;4994715;28;20049;-68
2022/05/13 05:47:21;;;;;;;26.05;3.97;;;;;;;;;;4994231;28;20126;-68
2022/05/13 05:49:47;;;;;;;16.65;2.60;;;;;;;;;;4993164;28;20075;-69
2022/05/13 05:52:12;;;;;;;17.50;2.97;;;;;;;;;;4997200;28;20073;-67
2022/05/13 05:57:22;;;;;;;23.95;3.38;;;;;;;;;;4996666;28;20163;-68
2022/05/13 05:59:49;;;;;;;20.60;3.00;;;;;;;;;;4992277;28;20037;-68
2022/05/13 06:02:16;;;;;;;22.35;3.35;;;;;;;;;;4994614;28;20761;-68
2022/05/13 06:04:41;;;;;;;23.20;3.28;;;;;;;;;;4996831;28;20045;-70
2022/05/13 06:07:08;;;;;;;10.82;2.20;;;;;;;;;;4997809;28;20041;-72
2022/05/13 06:09:34;;;;;;;17.88;2.70;;;;;;;;;;4995558;28;20037;-68
2022/05/13 06:11:59;;;;;;;18.50;2.97;;;;;;;;;;5001655;28;20296;-71
2022/05/13 06:14:25;;;;;;;17.30;3.35;;;;;;;;;;4994585;28;20033;-71
2022/05/13 06:16:54;;;;;;;16.17;2.53;;;;;;;;;;4997837;28;20039;-71
2022/05/13 06:19:19;;;;;;;17.10;2.95;;;;;;;;;;4993340;28;20163;-69
2022/05/13 06:21:47;;;;;;;19.83;2.92;;;;;;;;;;5005947;28;20040;-67
2022/05/13 06:24:12;;;;;;;16.77;2.78;;;;;;;;;;4982903;28;20114;-70
2022/05/13 06:26:40;;;;;;;18.08;3.30;;;;;;;;;;4990618;28;20037;-70
2022/05/13 06:29:06;;;;;;;21.55;3.17;;;;;;;;;;4988415;28;20252;-68
2022/05/13 06:31:31;;;;;;;20.63;2.80;;;;;;;;;;4990429;28;20372;-69
2022/05/13 06:33:59;;;;;;;21.23;3.08;;;;;;;;;;4990220;28;20060;-68
2022/05/13 06:36:25;;;;;;;14.82;2.70;;;;;;;;;;4979230;28;20075;-69
2022/05/13 06:38:50;;;;;;;16.38;2.55;;;;;;;;;;4991209;28;20033;-69
2022/05/13 06:41:15;;;;;;;13.10;2.40;;;;;;;;;;4989821;28;20421;-69
2022/05/13 06:43:41;;;;;;;18.92;2.40;;;;;;;;;;4994807;28;20084;-68
2022/05/13 06:46:06;;;;;;;19.83;2.90;;;;;;;;;;4993420;28;20066;-68
2022/05/13 06:48:32;;;;;;;11.02;2.33;;;;;;;;;;4995658;28;20565;-68
2022/05/13 06:50:57;;;;;;;18.50;2.75;;;;;;;;;;4991797;28;20091;-68
2022/05/13 06:53:22;;;;;;;16.23;2.70;;;;;;;;;;4999586;28;20319;-69
2022/05/13 06:55:49;;;;;;;16.38;2.92;;;;;;;;;;4993388;28;20054;-69
2022/05/13 06:58:17;;;;;;;17.92;3.15;;;;;;;;;;5007879;28;20531;-68
2022/05/13 07:00:44;;;;;;;22.08;3.05;;;;;;;;;;4993125;28;20553;-68
2022/05/13 07:03:17;;;;;;;22.95;2.88;;;;;;;;;;5006108;28;20106;-69
2022/05/13 07:05:43;;;;;;;17.02;2.47;;;;;;;;;;4994300;28;20041;-70
2022/05/13 07:08:08;;;;;;;23.05;3.58;;;;;;;;;;4992609;28;20324;-70
2022/05/13 07:10:34;;;;;;;22.88;2.80;;;;;;;;;;4992428;28;20037;-69
2022/05/13 07:13:00;;;;;;;21.33;3.22;;;;;;;;;;4992134;28;20548;-69
2022/05/13 07:15:26;;;;;;;23.75;3.08;;;;;;;;;;4991899;28;20894;-68
2022/05/13 07:17:52;;;;;;;18.17;2.80;;;;;;;;;;4995507;28;20036;-68
2022/05/13 07:20:17;;;;;;;25.42;2.92;;;;;;;;;;4991724;28;20026;-67
2022/05/13 07:22:42;;;;;;;15.98;2.97;;;;;;;;;;4994527;28;20036;-70
2022/05/13 07:25:08;;;;;;;22.48;3.15;;;;;;;;;;4976328;28;20106;-69
2022/05/13 07:27:36;;;;;;;17.20;2.80;;;;;;;;;;4994832;28;20033;-73
2022/05/13 07:30:01;;;;;;;20.52;3.42;;;;;;;;;;4975196;28;20186;-69
2022/05/13 07:32:26;;;;;;;21.30;2.90;;;;;;;;;;4996625;28;20782;-70
2022/05/13 07:34:51;;;;;;;24.17;3.13;;;;;;;;;;4995461;28;22277;-68
2022/05/13 07:37:17;;;;;;;15.77;2.53;;;;;;;;;;4995761;28;20053;-69
2022/05/13 07:42:29;;;;;;;17.27;3.08;;;;;;;;;;4985501;28;20033;-68
2022/05/13 07:44:59;;;;;;;18.67;2.95;;;;;;;;;;5000110;28;20048;-70
2022/05/13 07:47:25;;;;;;;19.65;3.05;;;;;;;;;;4993168;28;20051;-71
2022/05/13 07:49:53;;;;;;;17.40;2.78;;;;;;;;;;4998079;28;20029;-68
2022/05/13 07:52:18;;;;;;;19.98;3.10;;;;;;;;;;5001623;28;20060;-70
2022/05/13 07:54:43;;;;;;;17.58;3.20;;;;;;;;;;4997420;28;20151;-68
2022/05/13 07:57:09;;;;;;;22.33;3.58;;;;;;;;;;5001102;28;20037;-69
2022/05/13 08:00:24;;;;;;;21.15;3.17;;;;;;;;;;4996285;28;21390;-69
2022/05/13 08:02:21;;;;;;;25.15;3.00;;;;;;;;;;4998108;28;20048;-67
2022/05/13 08:04:46;;;;;;;20.48;2.88;;;;;;;;;;4997448;28;20195;-66
2022/05/13 08:07:11;;;;;;;22.88;3.22;;;;;;;;;;4997951;28;20057;-69
2022/05/13 08:09:39;;;;;;;16.27;3.22;;;;;;;;;;4989315;28;20067;-69
2022/05/13 08:12:04;;;;;;;16.85;2.72;;;;;;;;;;5010682;28;20048;-71
2022/05/13 08:14:30;;;;;;;25.23;3.15;;;;;;;;;;4998438;28;20072;-71
2022/05/13 08:17:00;;;;;;;26.35;3.33;;;;;;;;;;4981040;28;20095;-70
2022/05/13 08:19:25;;;;;;;21.17;3.03;;;;;;;;;;5000939;28;20056;-74
2022/05/13 08:21:53;;;;;;;24.10;3.25;;;;;;;;;;5000129;28;20037;-71
2022/05/13 08:24:19;;;;;;;24.23;3.50;;;;;;;;;;4999038;28;21004;-72
2022/05/13 08:26:44;;;;;;;19.30;3.10;;;;;;;;;;4994740;28;20030;-69
2022/05/13 08:29:10;;;;;;;16.92;2.83;;;;;;;;;;4996554;28;20057;-68
2022/05/13 08:31:35;;;;;;;15.57;2.83;;;;;;;;;;5000465;28;20040;-67
2022/05/13 08:34:01;;;;;;;15.43;2.70;;;;;;;;;;4974507;28;20111;-69
2022/05/13 08:36:27;;;;;;;23.40;3.03;;;;;;;;;;4983111;28;20028;-69
2022/05/13 08:38:52;;;;;;;18.00;3.40;;;;;;;;;;4995452;28;20037;-68
2022/05/13 08:41:28;;;;;;;23.85;3.03;;;;;;;;;;4998973;28;20040;-70
2022/05/13 08:44:00;;;;;;;16.83;2.90;;;;;;;;;;4998211;28;20098;-70
2022/05/13 08:46:33;;;;;;;16.77;2.65;;;;;;;;;;4997240;28;20251;-71
2022/05/13 08:49:01;;;;;;;21.73;3.25;;;;;;;;;;4994821;28;20168;-69
2022/05/13 08:51:47;;;;;;;25.08;3.63;;;;;;;;;;4997911;28;20377;-72
2022/05/13 08:54:15;;;;;;;24.48;3.40;;;;;;;;;;4992989;28;20037;-70
2022/05/13 08:56:47;;;;;;;19.02;3.08;;;;;;;;;;4980369;28;20172;-69
2022/05/13 08:59:15;;;;;;;17.63;2.90;;;;;;;;;;4997307;28;20438;-70
2022/05/13 09:01:49;;;;;;;23.77;3.33;;;;;;;;;;4999229;28;20044;-71
2022/05/13 09:04:36;;;;;;;21.65;3.17;;;;;;;;;;5012417;28;20831;-72
2022/05/13 09:07:04;;;;;;;20.15;3.20;;;;;;;;;;4996310;28;20387;-72
2022/05/13 09:09:34;;;;;;;20.50;3.15;;;;;;;;;;4999200;28;20227;-73
2022/05/13 09:12:22;;;;;;;19.20;2.97;;;;;;;;;;4998398;28;20122;-71
2022/05/13 09:14:55;;;;;;;13.52;2.90;;;;;;;;;;4997819;28;20127;-68
2022/05/13 09:17:35;;;;;;;16.35;2.75;;;;;;;;;;4996496;28;20057;-71
2022/05/13 09:20:07;;;;;;;25.50;3.13;;;;;;;;;;4996893;28;20047;-67
2022/05/13 09:22:33;;;;;;;14.70;3.20;;;;;;;;;;4993882;28;20033;-68
2022/05/13 09:24:59;;;;;;;22.25;2.95;;;;;;;;;;4996934;28;20048;-68
2022/05/13 09:27:24;;;;;;;20.52;2.95;;;;;;;;;;4996606;28;20047;-68
2022/05/13 09:29:49;;;;;;;24.60;3.45;;;;;;;;;;4987511;28;20152;-68
2022/05/13 09:32:25;;;;;;;17.52;3.65;;;;;;;;;;4996742;28;20029;-67
2022/05/13 09:34:57;;;;;;;19.33;3.28;;;;;;;;;;4992876;28;20045;-68
2022/05/13 09:37:23;;;;;;;;;;;;;;;;;;4990545;28;20667;-68
2022/05/13 09:40:05;;;;;;;24.02;3.13;;;;;;;;;;4996459;28;20030;-66
2022/05/13 09:42:38;;;;;;;20.30;2.92;;;;;;;;;;4999235;28;20820;-70
2022/05/13 09:45:29;;;;;;;21.92;3.50;;;;;;;;;;4994628;28;20038;-67
2022/05/13 09:48:18;;;;;;;30.15;3.95;;;;;;;;;;4994253;28;20037;-71
2022/05/13 09:50:46;;;;;;;25.05;3.67;;;;;;;;;;4990124;28;20038;-69
2022/05/13 09:53:20;;;;;;;24.02;3.75;;;;;;;;;;4990115;28;20041;-69
2022/05/13 09:55:46;;;;;;;22.73;3.58;;;;;;;;;;4990204;28;20159;-69
2022/05/13 09:58:22;;;;;;;27.15;3.97;;;;;;;;;;4993106;28;20122;-72
2022/05/13 10:00:57;;;;;;;20.38;3.42;;;;;;;;;;4995640;28;20229;-70
2022/05/13 10:03:25;;;;;;;31.42;3.70;;;;;;;;;;4989116;28;20130;-71
2022/05/13 10:06:02;;;;;;;27.02;4.10;;;;;;;;;;4994959;28;20821;-70
2022/05/13 10:08:27;;;;;;;24.13;3.83;;;;;;;;;;4995987;28;20083;-71
2022/05/13 10:14:07;;;;;;;27.35;3.50;;;;;;;;;;4995528;28;21172;-66
2022/05/13 10:16:38;;;;;;;21.02;3.90;;;;;;;;;;4991025;28;20041;-71
2022/05/13 10:19:15;;;;;;;30.23;4.30;;;;;;;;;;4976600;28;20301;-71
2022/05/13 10:21:43;;;;;;;24.23;4.03;;;;;;;;;;4986291;28;20036;-69
2022/05/13 10:24:30;;;;;;;25.67;3.63;;;;;;;;;;4994677;28;20106;-71
2022/05/13 10:26:57;;;;;;;22.83;3.58;;;;;;;;;;4996743;28;20069;-71
2022/05/13 10:29:25;;;;;;;26.77;3.50;;;;;;;;;;4996372;28;20049;-71
2022/05/13 10:31:51;;;;;;;32.17;4.28;;;;;;;;;;4996259;28;20025;-72
2022/05/13 10:34:35;;;;;;;31.98;4.25;;;;;;;;;;4995613;28;20044;-69
2022/05/13 10:37:23;;;;;;;23.52;3.70;;;;;;;;;;5008735;28;20576;-71
2022/05/13 10:39:52;;;;;;;24.02;3.67;;;;;;;;;;4992101;28;20071;-70
2022/05/13 10:42:19;;;;;;;27.25;3.85;;;;;;;;;;4993850;28;20087;-69
2022/05/13 10:44:58;;;;;;;31.35;4.50;;;;;;;;;;4995445;28;20037;-71
2022/05/13 10:47:37;;;;;;;28.70;3.90;;;;;;;;;;4993823;28;20037;-72
2022/05/13 10:50:12;;;;;;;28.90;4.60;;;;;;;;;;4997916;28;20037;-72
2022/05/13 10:52:37;;;;;;;32.28;4.55;;;;;;;;;;4997734;28;20048;-69
2022/05/13 10:55:08;;;;;;;31.20;4.45;;;;;;;;;;4997010;28;20072;-72
2022/05/13 10:57:45;;;;;;;39.00;6.05;;;;;;;;;;4993332;28;20059;-68
2022/05/13 11:00:15;;;;;;;31.48;4.57;;;;;;;;;;4995091;28;20029;-69
2022/05/13 11:02:53;;;;;;;31.35;4.63;;;;;;;;;;4993479;28;20034;-70
2022/05/13 11:05:21;;;;;;;36.83;5.28;;;;;;;;;;4992772;28;20063;-70
2022/05/13 11:07:46;;;;;;;33.08;5.28;;;;;;;;;;4992878;28;20029;-71
2022/05/13 11:10:25;;;;;;;36.75;5.20;;;;;;;;;;4994097;28;20037;-72
2022/05/13 11:13:08;;;;;;;27.02;5.30;;;;;;;;;;5013489;28;20053;-71
2022/05/13 11:15:37;;;;;;;31.27;4.60;;;;;;;;;;4997175;28;20045;-72
2022/05/13 11:18:13;;;;;;;33.30;5.38;;;;;;;;;;4998666;28;20044;-67
2022/05/13 11:20:39;;;;;;;22.48;4.30;;;;;;;;;;4998023;28;20032;-70
2022/05/13 11:23:04;;;;;;;29.02;4.60;;;;;;;;;;5002406;28;20715;-69
2022/05/13 11:25:58;;;;;;;33.30;5.35;;;;;;;;;;5001668;28;20376;-67
2022/05/13 11:28:32;;;;;;;33.25;4.72;;;;;;;;;;5002045;28;20121;-72
2022/05/13 11:31:05;;;;;;;24.05;4.30;;;;;;;;;;4999380;28;20122;-72
2022/05/13 11:33:46;;;;;;;38.17;5.13;;;;;;;;;;5000116;28;20751;-71
2022/05/13 11:36:35;;;;;;;28.95;4.72;;;;;;;;;;5000571;28;20041;-73
2022/05/13 11:39:12;;;;;;;34.17;4.80;;;;;;;;;;4999354;28;21438;-72
2022/05/13 11:41:50;;;;;;;36.97;5.30;;;;;;;;;;5002334;28;20037;-69
2022/05/13 11:44:18;;;;;;;35.30;5.38;;;;;;;;;;5002168;28;20041;-68
2022/05/13 11:46:56;;;;;;;28.75;4.13;;;;;;;;;;4998712;28;20144;-68
2022/05/13 11:49:27;;;;;;;40.15;4.28;;;;;;;;;;5000142;28;20131;-67
2022/05/13 11:51:54;;;;;;;39.15;5.15;;;;;;;;;;5001032;28;20048;-68
2022/05/13 11:54:21;;;;;;;38.45;5.78;;;;;;;;;;4999239;28;21865;-69
2022/05/13 11:56:46;;;;;;;43.70;5.28;;;;;;;;;;5000150;28;20897;-69
2022/05/13 11:59:35;;;;;;;38.05;4.50;;;;;;;;;;4998378;28;20110;-70
2022/05/13 12:02:08;;;;;;;33.03;4.63;;;;;;;;;;4978859;28;20107;-68
2022/05/13 12:04:36;;;;;;;28.05;4.95;;;;;;;;;;5000542;28;20981;-70
2022/05/13 12:07:18;;;;;;;31.20;4.55;;;;;;;;;;4999135;28;20086;-67
2022/05/13 12:09:53;;;;;;;33.70;4.30;;;;;;;;;;5001196;28;20892;-67
2022/05/13 12:12:21;;;;;;;34.90;5.60;;;;;;;;;;4978866;28;20829;-67
2022/05/13 12:14:54;;;;;;;26.58;4.75;;;;;;;;;;5000083;28;20037;-66
2022/05/13 12:17:25;;;;;;;36.72;5.07;;;;;;;;;;4999938;28;20040;-66
2022/05/13 12:20:04;;;;;;;31.92;4.53;;;;;;;;;;4996562;28;20099;-65
2022/05/13 12:22:29;;;;;;;32.90;4.78;;;;;;;;;;4997585;28;20596;-68
2022/05/13 12:24:55;;;;;;;29.58;4.32;;;;;;;;;;4999495;28;20049;-68
2022/05/13 12:27:31;;;;;;;35.80;4.50;;;;;;;;;;4998180;28;20081;-66
2022/05/13 12:30:02;;;;;;;31.38;5.15;;;;;;;;;;4999248;28;20048;-69
2022/05/13 12:32:43;;;;;;;40.75;5.10;;;;;;;;;;4998052;28;20102;-67
2022/05/13 12:38:06;;;;;;;36.03;5.32;;;;;;;;;;4992945;28;20720;-68
2022/05/13 12:40:39;;;;;;;41.22;5.15;;;;;;;;;;5009548;28;20873;-70
2022/05/13 12:43:16;;;;;;;38.50;5.38;;;;;;;;;;4993209;28;20356;-71
2022/05/13 12:45:45;;;;;;;31.75;4.60;;;;;;;;;;4995152;28;20367;-71
2022/05/13 12:48:15;;;;;;;28.30;4.43;;;;;;;;;;4997084;28;20036;-69
2022/05/13 12:50:51;;;;;;;29.27;4.22;;;;;;;;;;4994708;28;20072;-70
2022/05/13 12:53:29;;;;;;;27.88;4.82;;;;;;;;;;4993726;28;20213;-71
2022/05/13 12:55:58;;;;;;;32.78;5.07;;;;;;;;;;4995058;28;20481;-70
2022/05/13 12:58:24;;;;;;;27.75;4.75;;;;;;;;;;4995453;28;20044;-70
2022/05/13 13:00:51;;;;;;;40.08;6.20;;;;;;;;;;4996154;28;20557;-67
2022/05/13 13:03:18;;;;;;;27.42;4.50;;;;;;;;;;4995146;28;20025;-71
2022/05/13 13:05:47;;;;;;;23.90;3.88;;;;;;;;;;4992744;28;20028;-71
2022/05/13 13:08:16;;;;;;;27.20;5.05;;;;;;;;;;4997047;28;20033;-72
2022/05/13 13:11:14;;;;;;;31.35;4.18;;;;;;;;;;4995068;28;20026;-71
2022/05/13 13:13:42;;;;;;;21.58;3.85;;;;;;;;;;4983352;28;20552;-67
2022/05/13 13:16:13;;;;;;;30.75;4.68;;;;;;;;;;4995064;28;20846;-70
2022/05/13 13:18:41;;;;;;;28.75;4.30;;;;;;;;;;4996460;28;20044;-68
2022/05/13 13:21:10;;;;;;;25.08;3.72;;;;;;;;;;4997866;28;20029;-67
2022/05/13 13:23:40;;;;;;;25.67;4.45;;;;;;;;;;4990813;28;20041;-68
2022/05/13 13:26:07;;;;;;;28.13;4.47;;;;;;;;;;4995153;28;20040;-68
2022/05/13 13:28:34;;;;;;;31.48;4.38;;;;;;;;;;4996754;28;20040;-69
2022/05/13 13:31:03;;;;;;;34.05;4.38;;;;;;;;;;4995828;28;20047;-68
2022/05/13 13:33:30;;;;;;;26.63;4.55;;;;;;;;;;4996197;28;20063;-68
2022/05/13 13:36:12;;;;;;;25.35;4.05;;;;;;;;;;4995702;28;20041;-68
2022/05/13 13:38:41;;;;;;;20.95;4.03;;;;;;;;;;4993626;28;20272;-68
2022/05/13 13:41:06;;;;;;;28.17;4.93;;;;;;;;;;5009665;28;20857;-66
2022/05/13 13:43:34;;;;;;;26.13;4.63;;;;;;;;;;4993160;28;20034;-69
2022/05/13 13:45:59;;;;;;;31.90;4.80;;;;;;;;;;4994849;28;20386;-72
2022/05/13 13:48:29;;;;;;;27.30;3.90;;;;;;;;;;4994091;28;20509;-69
2022/05/13 13:50:55;;;;;;;34.38;4.97;;;;;;;;;;4993754;28;20037;-68
2022/05/13 13:53:26;;;;;;;29.90;4.63;;;;;;;;;;5009990;28;20103;-68
2022/05/13 13:55:51;;;;;;;27.30;4.38;;;;;;;;;;4996476;28;20056;-67
2022/05/13 13:58:32;;;;;;;28.73;4.13;;;;;;;;;;4994144;28;20977;-69
2022/05/13 14:01:06;;;;;;;22.02;3.95;;;;;;;;;;4995877;28;20041;-67
2022/05/13 14:03:34;;;;;;;28.27;4.75;;;;;;;;;;4995304;28;20040;-67
2022/05/13 14:06:01;;;;;;;18.15;3.85;;;;;;;;;;4998191;28;20083;-69
2022/05/13 14:08:28;;;;;;;19.58;3.90;;;;;;;;;;4996421;28;20800;-70
2022/05/13 14:11:00;;;;;;;23.38;4.50;;;;;;;;;;4995534;28;20036;-69
2022/05/13 14:13:36;;;;;;;26.85;4.50;;;;;;;;;;4998848;28;20774;-69
2022/05/13 14:16:12;;;;;;;26.02;3.85;;;;;;;;;;4998179;28;20212;-70
2022/05/13 14:18:38;;;;;;;22.95;4.03;;;;;;;;;;5011682;28;20030;-67
2022/05/13 14:21:08;;;;;;;22.55;3.85;;;;;;;;;;4995816;28;20037;-68
2022/05/13 14:23:34;;;;;;;21.40;4.03;;;;;;;;;;5000854;28;20031;-68
2022/05/13 14:26:01;;;;;;;19.70;3.60;;;;;;;;;;4998986;28;20127;-70
2022/05/13 14:28:30;;;;;;;18.30;3.83;;;;;;;;;;4998229;28;20561;-69
2022/05/13 14:30:58;;;;;;;16.02;3.35;;;;;;;;;;4997837;28;20136;-70
2022/05/13 14:33:30;;;;;;;16.90;3.63;;;;;;;;;;5011861;28;20025;-70
2022/05/13 14:36:01;;;;;;;16.35;3.22;;;;;;;;;;4996237;28;20133;-71
2022/05/13 14:41:47;;;;;;;19.90;3.90;;;;;;;;;;4993357;28;20040;-71
2022/05/13 14:44:15;;;;;;;21.40;3.80;;;;;;;;;;4997344;28;20034;-69
2022/05/13 14:46:52;;;;;;;18.88;3.80;;;;;;;;;;4992737;28;20032;-70
2022/05/13 14:49:33;;;;;;;25.48;4.50;;;;;;;;;;4992938;28;20797;-68
2022/05/13 14:51:59;;;;;;;26.80;4.80;;;;;;;;;;4996589;28;20037;-70
2022/05/13 14:54:27;;;;;;;24.83;4.63;;;;;;;;;;4992633;28;20048;-69
2022/05/13 14:56:55;;;;;;;20.40;3.95;;;;;;;;;;5010223;28;22384;-70
2022/05/13 14:59:37;;;;;;;24.85;4.43;;;;;;;;;;4994208;28;20079;-72
2022/05/13 15:02:04;;;;;;;20.02;4.47;;;;;;;;;;4997639;28;20161;-72
2022/05/13 15:04:35;;;;;;;18.73;3.75;;;;;;;;;;4997544;28;20134;-67
2022/05/13 15:07:15;;;;;;;26.73;4.73;;;;;;;;;;4999825;28;20335;-69
2022/05/13 15:09:40;;;;;;;18.30;3.72;;;;;;;;;;4997004;28;20103;-72